createdAt,value
2023-01-28T00:01:49.917Z,98.41
2023-01-28T00:04:18.458Z,98.75
2023-01-28T00:06:46.634Z,98.69
2023-01-28T00:09:14.314Z,98.98
2023-01-28T00:11:42.709Z,98.88
2023-01-28T00:14:12.574Z,98.71
2023-01-28T00:16:40.554Z,99.00
2023-01-28T00:19:08.461Z,99.06
2023-01-28T00:21:36.728Z,98.82
2023-01-28T00:24:07.046Z,98.42
2023-01-28T00:26:35.471Z,98.59
2023-01-28T00:29:03.704Z,98.83
2023-01-28T00:31:31.807Z,98.54
2023-01-28T00:34:01.593Z,98.26
2023-01-28T00:36:29.567Z,98.03
2023-01-28T00:38:59.611Z,98.12
2023-01-28T00:41:30.084Z,97.47
2023-01-28T00:43:59.684Z,97.88
2023-01-28T00:46:28.008Z,97.61
2023-01-28T00:48:55.849Z,97.62
2023-01-28T00:51:23.875Z,97.56
2023-01-28T00:53:51.654Z,97.50
2023-01-28T00:56:19.886Z,97.61
2023-01-28T00:58:48.408Z,97.46
2023-01-28T01:01:19.452Z,97.36
2023-01-28T01:03:48.029Z,97.72
2023-01-28T01:06:16.928Z,97.71
2023-01-28T01:08:50.197Z,97.29
2023-01-28T01:11:19.485Z,97.44
2023-01-28T01:13:55.287Z,97.38
2023-01-28T01:16:28.587Z,97.66
2023-01-28T01:18:57.283Z,97.45
2023-01-28T01:21:28.015Z,97.79
2023-01-28T01:23:56.470Z,97.97
2023-01-28T01:26:27.384Z,97.74
2023-01-28T01:28:55.356Z,97.73
2023-01-28T01:31:23.570Z,97.35
2023-01-28T01:33:52.694Z,97.07
2023-01-28T01:36:22.134Z,97.37
2023-01-28T01:38:55.338Z,96.60
2023-01-28T01:41:33.632Z,96.84
2023-01-28T01:44:03.756Z,97.19
2023-01-28T01:46:36.167Z,97.32
2023-01-28T01:49:11.716Z,96.46
2023-01-28T01:51:40.816Z,96.64
2023-01-28T01:54:09.170Z,96.69
2023-01-28T01:56:42.503Z,96.88
2023-01-28T01:59:14.175Z,97.19
2023-01-28T02:01:45.873Z,97.19
2023-01-28T02:04:29.672Z,96.86
2023-01-28T02:06:58.977Z,97.00
2023-01-28T02:09:29.703Z,96.83
2023-01-28T02:12:02.880Z,97.13
2023-01-28T02:14:33.476Z,97.35
2023-01-28T02:17:02.456Z,97.52
2023-01-28T02:19:55.226Z,97.44
2023-01-28T02:22:58.164Z,97.52
2023-01-28T02:25:55.555Z,97.62
2023-01-28T02:28:59.121Z,97.35
2023-01-28T02:31:51.537Z,97.45
2023-01-28T02:34:22.549Z,97.55
2023-01-28T02:37:09.127Z,97.68
2023-01-28T02:39:49.650Z,97.33
2023-01-28T02:42:31.920Z,96.22
2023-01-28T02:45:00.126Z,96.12
2023-01-28T02:47:46.505Z,95.99
2023-01-28T02:50:20.018Z,95.88
2023-01-28T02:53:15.218Z,96.49
2023-01-28T02:55:51.878Z,96.44
2023-01-28T02:58:48.443Z,96.74
2023-01-28T03:01:19.551Z,96.67
2023-01-28T03:04:08.128Z,97.29
2023-01-28T03:06:41.837Z,97.36
2023-01-28T03:09:26.900Z,96.73
2023-01-28T03:12:31.572Z,96.70
2023-01-28T03:15:29.997Z,96.70
2023-01-28T03:18:55.804Z,96.60
2023-01-28T03:21:53.932Z,96.61
2023-01-28T03:24:49.665Z,96.92
2023-01-28T03:27:53.188Z,96.66
2023-01-28T03:30:53.839Z,96.28
2023-01-28T03:33:52.545Z,96.57
2023-01-28T03:36:39.469Z,96.26
2023-01-28T03:39:11.241Z,96.28
2023-01-28T03:41:40.458Z,96.30
2023-01-28T03:44:26.668Z,96.84
2023-01-28T03:46:54.843Z,96.33
2023-01-28T03:49:22.767Z,96.07
2023-01-28T03:51:50.878Z,95.42
2023-01-28T03:54:18.706Z,95.44
2023-01-28T03:56:48.583Z,95.44
2023-01-28T03:59:17.931Z,95.56
2023-01-28T04:01:46.078Z,95.59
2023-01-28T04:04:23.026Z,95.57
2023-01-28T04:07:00.317Z,95.23
2023-01-28T04:09:48.340Z,95.25
2023-01-28T04:12:27.693Z,95.19
2023-01-28T04:14:56.145Z,95.41
2023-01-28T04:17:29.130Z,95.48
2023-01-28T04:19:57.950Z,95.63
2023-01-28T04:22:26.926Z,95.87
2023-01-28T04:24:54.748Z,96.02
2023-01-28T04:27:22.708Z,96.23
2023-01-28T04:29:51.374Z,95.88
2023-01-28T04:32:47.337Z,95.56
2023-01-28T04:35:33.548Z,95.40
2023-01-28T04:38:08.737Z,95.42
2023-01-28T04:40:49.272Z,96.22
2023-01-28T04:43:26.385Z,96.17
2023-01-28T04:46:16.889Z,96.29
2023-01-28T04:49:04.625Z,96.66
2023-01-28T04:52:01.831Z,97.04
2023-01-28T04:54:41.500Z,96.92
2023-01-28T04:57:09.729Z,97.19
2023-01-28T04:59:37.724Z,96.96
2023-01-28T05:02:06.069Z,96.59
2023-01-28T05:04:34.227Z,96.70
2023-01-28T05:07:02.447Z,96.57
2023-01-28T05:09:33.917Z,96.37
2023-01-28T05:12:01.744Z,96.28
2023-01-28T05:14:32.561Z,96.63
2023-01-28T05:17:05.967Z,96.73
2023-01-28T05:19:34.113Z,96.73
2023-01-28T05:22:03.461Z,96.86
2023-01-28T05:24:54.105Z,96.59
2023-01-28T05:27:22.151Z,96.48
2023-01-28T05:29:50.045Z,96.45
2023-01-28T05:32:17.731Z,96.41
2023-01-28T05:34:46.278Z,96.48
2023-01-28T05:37:15.266Z,96.28
2023-01-28T05:39:43.278Z,95.83
2023-01-28T05:42:11.533Z,96.23
2023-01-28T05:44:45.381Z,96.42
2023-01-28T05:47:19.299Z,96.31
2023-01-28T05:49:52.985Z,96.35
2023-01-28T05:52:40.903Z,96.42
2023-01-28T05:55:15.863Z,96.54
2023-01-28T05:57:44.604Z,97.16
2023-01-28T06:00:16.315Z,96.63
2023-01-28T06:02:45.361Z,96.57
2023-01-28T06:05:16.261Z,96.49
2023-01-28T06:07:48.448Z,96.30
2023-01-28T06:10:20.069Z,96.13
2023-01-28T06:12:48.623Z,96.01
2023-01-28T06:15:37.083Z,96.08
2023-01-28T06:18:23.001Z,96.38
2023-01-28T06:20:52.416Z,96.39
2023-01-28T06:23:20.356Z,96.84
2023-01-28T06:25:48.507Z,96.78
2023-01-28T06:28:16.907Z,97.30
2023-01-28T06:30:48.024Z,97.68
2023-01-28T06:33:15.802Z,97.52
2023-01-28T06:35:44.028Z,97.17
2023-01-28T06:38:12.809Z,97.35
2023-01-28T06:40:40.796Z,97.42
2023-01-28T06:43:08.542Z,97.55
2023-01-28T06:45:36.457Z,97.29
2023-01-28T06:48:05.635Z,97.35
2023-01-28T06:50:34.602Z,97.41
2023-01-28T06:53:02.208Z,97.30
2023-01-28T06:55:30.147Z,97.41
2023-01-28T06:57:57.908Z,97.89
2023-01-28T07:00:26.029Z,98.07
2023-01-28T07:02:57.306Z,98.09
2023-01-28T07:05:25.968Z,98.13
2023-01-28T07:07:53.718Z,98.04
2023-01-28T07:10:21.719Z,98.10
2023-01-28T07:12:49.475Z,98.17
2023-01-28T07:15:17.483Z,98.01
2023-01-28T07:17:45.680Z,98.11
2023-01-28T07:20:15.631Z,98.22
2023-01-28T07:22:44.657Z,98.84
2023-01-28T07:25:14.238Z,98.49
2023-01-28T07:27:48.013Z,97.86
2023-01-28T07:30:17.034Z,98.13
2023-01-28T07:32:45.845Z,98.10
2023-01-28T07:35:14.281Z,98.33
2023-01-28T07:37:41.964Z,98.24
2023-01-28T07:40:10.764Z,97.77
2023-01-28T07:42:39.276Z,98.23
2023-01-28T07:45:08.264Z,97.88
2023-01-28T07:47:37.059Z,97.77
2023-01-28T07:50:05.552Z,97.19
2023-01-28T07:52:38.850Z,97.14
2023-01-28T07:55:07.129Z,97.10
2023-01-28T07:57:34.856Z,96.90
2023-01-28T08:00:03.093Z,96.85
2023-01-28T08:02:39.718Z,97.18
2023-01-28T08:05:08.307Z,97.41
2023-01-28T08:07:36.190Z,97.43
2023-01-28T08:10:04.448Z,97.12
2023-01-28T08:12:32.099Z,97.06
2023-01-28T08:15:00.137Z,97.41
2023-01-28T08:17:28.583Z,97.60
2023-01-28T08:19:56.565Z,97.84
2023-01-28T08:22:28.348Z,98.09
2023-01-28T08:24:56.516Z,98.14
2023-01-28T08:27:24.257Z,98.01
2023-01-28T08:29:52.292Z,97.75
2023-01-28T08:32:19.957Z,97.49
2023-01-28T08:34:48.044Z,96.89
2023-01-28T08:37:15.766Z,96.80
2023-01-28T08:39:45.582Z,96.18
2023-01-28T08:42:14.106Z,95.78
2023-01-28T08:44:42.048Z,95.98
2023-01-28T08:47:09.720Z,95.57
2023-01-28T08:49:37.637Z,95.53
2023-01-28T08:52:05.463Z,95.92
2023-01-28T08:54:33.955Z,95.53
2023-01-28T08:57:01.654Z,95.52
2023-01-28T08:59:29.673Z,95.32
2023-01-28T09:01:57.398Z,95.17
2023-01-28T09:04:25.360Z,95.34
2023-01-28T09:06:54.128Z,95.61
2023-01-28T09:09:22.352Z,95.17
2023-01-28T09:11:49.981Z,95.55
2023-01-28T09:14:17.965Z,95.27
2023-01-28T09:16:45.682Z,95.89
2023-01-28T09:19:15.015Z,95.94
2023-01-28T09:21:43.405Z,96.30
2023-01-28T09:24:12.350Z,95.79
2023-01-28T09:26:40.022Z,94.81
2023-01-28T09:29:07.934Z,94.74
2023-01-28T09:31:35.730Z,94.78
2023-01-28T09:34:04.214Z,94.98
2023-01-28T09:36:32.704Z,95.28
2023-01-28T09:39:01.751Z,95.12
2023-01-28T09:41:42.676Z,94.52
2023-01-28T09:44:32.589Z,94.13
2023-01-28T09:47:08.866Z,94.12
2023-01-28T09:49:48.743Z,94.00
2023-01-28T09:52:19.414Z,94.06
2023-01-28T09:54:50.662Z,94.77
2023-01-28T09:57:26.154Z,94.29
2023-01-28T09:59:54.097Z,94.51
2023-01-28T10:02:36.736Z,94.13
2023-01-28T10:05:17.089Z,93.57
2023-01-28T10:07:52.299Z,93.89
2023-01-28T10:10:29.158Z,94.51
2023-01-28T10:13:30.881Z,94.97
2023-01-28T10:16:20.656Z,94.76
2023-01-28T10:19:11.264Z,94.74
2023-01-28T10:21:50.536Z,94.53
2023-01-28T10:24:44.430Z,94.07
2023-01-28T10:27:19.941Z,94.53
2023-01-28T10:29:50.147Z,94.71
2023-01-28T10:32:29.217Z,94.52
2023-01-28T10:34:59.824Z,93.87
2023-01-28T10:37:29.416Z,94.24
2023-01-28T10:40:00.324Z,93.75
2023-01-28T10:42:36.340Z,94.17
2023-01-28T10:45:14.843Z,93.76
2023-01-28T10:47:51.887Z,94.80
2023-01-28T10:50:24.672Z,95.35
2023-01-28T10:52:55.486Z,95.49
2023-01-28T10:55:27.367Z,94.73
2023-01-28T10:57:55.913Z,95.07
2023-01-28T11:00:37.453Z,94.11
2023-01-28T11:03:06.193Z,93.77
2023-01-28T11:05:34.008Z,94.24
2023-01-28T11:08:19.365Z,95.13
2023-01-28T11:13:24.909Z,95.92
2023-01-28T11:15:53.697Z,95.42
2023-01-28T11:18:24.934Z,95.70
2023-01-28T11:21:00.359Z,95.35
2023-01-28T11:23:41.728Z,95.52
2023-01-28T11:26:21.446Z,95.44
2023-01-28T11:28:50.307Z,95.82
2023-01-28T11:31:20.518Z,96.09
2023-01-28T11:34:00.564Z,96.33
2023-01-28T11:36:33.800Z,95.76
2023-01-28T11:39:28.649Z,94.81
2023-01-28T11:42:17.700Z,93.89
2023-01-28T11:44:49.440Z,93.38
2023-01-28T11:47:32.563Z,93.45
2023-01-28T11:50:21.020Z,93.85
2023-01-28T11:53:07.769Z,93.65
2023-01-28T11:56:09.522Z,93.30
2023-01-28T11:58:49.317Z,93.01
2023-01-28T12:01:36.228Z,93.70
2023-01-28T12:04:22.970Z,93.66
2023-01-28T12:07:24.894Z,93.81
2023-01-28T12:09:58.336Z,93.89
2023-01-28T12:13:04.285Z,93.70
2023-01-28T12:15:41.358Z,93.88
2023-01-28T12:18:19.049Z,93.75
2023-01-28T12:20:59.326Z,94.47
2023-01-28T12:23:42.148Z,94.80
2023-01-28T12:26:13.385Z,94.34
2023-01-28T12:28:41.058Z,93.48
2023-01-28T12:31:52.843Z,93.51
2023-01-28T12:34:41.731Z,93.59
2023-01-28T12:37:25.562Z,93.84
2023-01-28T12:40:26.601Z,93.51
2023-01-28T12:43:10.527Z,93.50
2023-01-28T12:45:42.565Z,93.51
2023-01-28T12:48:45.469Z,93.97
2023-01-28T12:51:17.747Z,93.87
2023-01-28T12:53:54.650Z,93.71
2023-01-28T12:56:29.908Z,93.08
2023-01-28T12:59:35.794Z,93.41
2023-01-28T13:02:18.622Z,93.59
2023-01-28T13:05:09.228Z,93.40
2023-01-28T13:07:59.288Z,93.47
2023-01-28T13:10:38.648Z,93.85
2023-01-28T13:13:07.732Z,94.02
2023-01-28T13:15:39.891Z,94.00
2023-01-28T13:18:07.893Z,94.63
2023-01-28T13:20:36.680Z,94.60
2023-01-28T13:23:20.926Z,95.17
2023-01-28T13:25:51.531Z,94.34
2023-01-28T13:28:32.863Z,94.31
2023-01-28T13:31:08.756Z,93.64
2023-01-28T13:33:40.077Z,93.75
2023-01-28T13:36:41.893Z,94.15
2023-01-28T13:39:21.198Z,94.44
2023-01-28T13:41:52.349Z,94.74
2023-01-28T13:44:26.270Z,95.12
2023-01-28T13:46:56.990Z,95.37
2023-01-28T13:49:49.650Z,95.53
2023-01-28T13:52:53.529Z,95.44
2023-01-28T13:55:42.799Z,95.39
2023-01-28T13:58:36.315Z,95.42
2023-01-28T14:01:20.381Z,95.97
2023-01-28T14:04:00.254Z,96.31
2023-01-28T14:06:40.577Z,96.31
2023-01-28T14:09:29.728Z,96.52
2023-01-28T14:12:37.169Z,96.29
2023-01-28T14:15:45.949Z,96.09
2023-01-28T14:18:33.071Z,96.52
2023-01-28T14:21:05.059Z,96.39
2023-01-28T14:23:32.985Z,96.06
2023-01-28T14:26:15.931Z,95.36
2023-01-28T14:28:57.232Z,95.11
2023-01-28T14:31:37.199Z,95.61
2023-01-28T14:34:13.902Z,95.82
2023-01-28T14:36:44.938Z,96.05
2023-01-28T14:39:19.209Z,96.39
2023-01-28T14:41:50.636Z,96.47
2023-01-28T14:44:25.203Z,96.66
2023-01-28T14:47:06.461Z,96.44
2023-01-28T14:49:52.463Z,96.05
2023-01-28T14:52:40.604Z,96.26
2023-01-28T14:55:40.607Z,96.30
2023-01-28T14:58:28.282Z,96.42
2023-01-28T15:00:59.309Z,96.87
2023-01-28T15:03:29.191Z,96.80
2023-01-28T15:06:13.413Z,96.20
2023-01-28T15:08:41.416Z,96.19
2023-01-28T15:11:14.895Z,96.28
2023-01-28T15:13:47.583Z,96.57
2023-01-28T15:16:25.549Z,96.56
2023-01-28T15:18:53.664Z,96.75
2023-01-28T15:21:27.053Z,96.62
2023-01-28T15:23:58.424Z,96.50
2023-01-28T15:26:34.708Z,96.71
2023-01-28T15:29:02.933Z,97.25
2023-01-28T15:31:38.853Z,97.29
2023-01-28T15:34:18.897Z,97.30
2023-01-28T15:36:49.695Z,96.63
2023-01-28T15:39:23.356Z,96.47
2023-01-28T15:42:06.815Z,96.20
2023-01-28T15:44:42.362Z,96.25
2023-01-28T15:47:46.105Z,96.86
2023-01-28T15:50:26.012Z,97.18
2023-01-28T15:52:55.586Z,96.99
2023-01-28T15:55:39.942Z,97.20
2023-01-28T15:58:26.201Z,97.60
2023-01-28T16:01:09.314Z,97.60
2023-01-28T16:03:40.022Z,97.35
2023-01-28T16:06:19.254Z,97.32
2023-01-28T16:08:50.989Z,97.08
2023-01-28T16:11:41.484Z,96.99
2023-01-28T16:14:25.519Z,96.60
2023-01-28T16:16:55.912Z,95.61
2023-01-28T16:19:38.781Z,94.22
2023-01-28T16:22:09.231Z,93.20
2023-01-28T16:24:37.147Z,93.24
2023-01-28T16:27:19.302Z,93.41
2023-01-28T16:29:46.963Z,93.88
2023-01-28T16:32:35.505Z,94.13
2023-01-28T16:35:03.753Z,93.01
2023-01-28T16:37:31.838Z,90.03
2023-01-28T16:40:01.568Z,88.75
2023-01-28T16:42:32.393Z,88.76
2023-01-28T16:45:00.107Z,88.81
2023-01-28T16:47:28.611Z,88.95
2023-01-28T16:49:56.590Z,89.40
2023-01-28T16:52:24.839Z,90.08
2023-01-28T16:54:52.560Z,90.55
2023-01-28T16:57:22.780Z,90.78
2023-01-28T16:59:50.582Z,91.13
2023-01-28T17:02:18.619Z,91.41
2023-01-28T17:04:46.521Z,91.10
2023-01-28T17:07:14.894Z,91.24
2023-01-28T17:09:42.629Z,91.29
2023-01-28T17:12:10.641Z,91.46
2023-01-28T17:14:39.638Z,91.44
2023-01-28T17:17:07.899Z,91.64
2023-01-28T17:19:35.750Z,91.48
2023-01-28T17:22:03.753Z,91.82
2023-01-28T17:24:31.609Z,92.06
2023-01-28T17:26:59.706Z,92.35
2023-01-28T17:29:28.146Z,92.61
2023-01-28T17:31:56.551Z,92.14
2023-01-28T17:34:24.349Z,92.11
2023-01-28T17:36:52.385Z,92.28
2023-01-28T17:39:20.047Z,92.39
2023-01-28T17:41:48.063Z,92.27
2023-01-28T17:44:15.857Z,92.67
2023-01-28T17:46:43.798Z,92.85
2023-01-28T17:49:12.344Z,92.80
2023-01-28T17:51:40.797Z,92.94
2023-01-28T17:54:08.569Z,93.05
2023-01-28T17:56:37.595Z,92.74
2023-01-28T17:59:06.717Z,92.92
2023-01-28T18:01:37.248Z,92.88
2023-01-28T18:04:05.438Z,92.66
2023-01-28T18:06:36.690Z,92.44
2023-01-28T18:09:05.540Z,92.86
2023-01-28T18:11:33.566Z,92.48
2023-01-28T18:14:01.431Z,92.63
2023-01-28T18:16:29.451Z,92.34
2023-01-28T18:18:57.149Z,92.35
2023-01-28T18:21:51.598Z,92.34
2023-01-28T18:24:21.968Z,92.54
2023-01-28T18:26:51.044Z,92.06
2023-01-28T18:29:20.948Z,92.05
2023-01-28T18:31:50.153Z,91.63
2023-01-28T18:34:18.846Z,91.25
2023-01-28T18:36:47.195Z,91.27
2023-01-28T18:39:15.836Z,90.45
2023-01-28T18:41:43.965Z,89.25
2023-01-28T18:44:14.219Z,88.48
2023-01-28T18:46:42.704Z,87.62
2023-01-28T18:49:10.492Z,85.79
2023-01-28T18:51:38.785Z,84.57
2023-01-28T18:54:11.127Z,84.56
2023-01-28T18:56:41.140Z,84.91
2023-01-28T18:59:12.800Z,84.32
2023-01-28T19:01:42.661Z,83.99
2023-01-28T19:04:11.362Z,84.15
2023-01-28T19:06:39.374Z,84.46
2023-01-28T19:09:08.558Z,84.36
2023-01-28T19:11:38.559Z,84.65
2023-01-28T19:14:06.794Z,84.77
2023-01-28T19:16:37.303Z,84.35
2023-01-28T19:19:05.710Z,84.21
2023-01-28T19:21:34.327Z,83.78
2023-01-28T19:24:06.706Z,83.29
2023-01-28T19:26:34.697Z,82.99
2023-01-28T19:29:02.669Z,82.43
2023-01-28T19:31:30.837Z,82.15
2023-01-28T19:34:00.177Z,82.31
2023-01-28T19:36:30.127Z,82.02
2023-01-28T19:38:59.874Z,81.62
2023-01-28T19:41:29.348Z,81.45
2023-01-28T19:43:57.745Z,80.70
2023-01-28T19:46:26.304Z,81.11
2023-01-28T19:48:54.511Z,80.98
2023-01-28T19:51:23.873Z,80.97
2023-01-28T19:53:53.554Z,80.68
2023-01-28T19:56:25.469Z,80.78
2023-01-28T19:58:54.652Z,80.94
2023-01-28T20:01:25.777Z,81.03
2023-01-28T20:03:57.473Z,80.53
2023-01-28T20:06:29.558Z,79.87
2023-01-28T20:09:02.502Z,79.07
2023-01-28T20:11:30.827Z,78.68
2023-01-28T20:13:59.851Z,78.35
2023-01-28T20:16:30.759Z,78.39
2023-01-28T20:19:04.540Z,78.32
2023-01-28T20:21:33.680Z,78.58
2023-01-28T20:24:02.799Z,78.51
2023-01-28T20:26:33.349Z,78.74
2023-01-28T20:29:03.530Z,78.66
2023-01-28T20:31:33.468Z,78.13
2023-01-28T20:34:01.880Z,78.08
2023-01-28T20:36:29.886Z,77.57
2023-01-28T20:38:57.647Z,76.65
2023-01-28T20:41:27.374Z,76.14
2023-01-28T20:43:55.997Z,75.18
2023-01-28T20:46:30.802Z,75.70
2023-01-28T20:49:00.580Z,75.63
2023-01-28T20:51:31.529Z,74.80
2023-01-28T20:54:00.809Z,74.81
2023-01-28T20:56:32.770Z,74.94
2023-01-28T20:59:06.007Z,74.65
2023-01-28T21:01:35.767Z,73.80
2023-01-28T21:04:04.974Z,73.73
2023-01-28T21:06:33.534Z,73.45
2023-01-28T21:09:01.487Z,73.29
2023-01-28T21:11:30.554Z,72.83
2023-01-28T21:13:58.684Z,73.11
2023-01-28T21:18:48.361Z,73.40
2023-01-28T21:21:21.762Z,73.71
2023-01-28T21:23:49.969Z,74.19
2023-01-28T21:26:18.314Z,73.93
2023-01-28T21:28:46.306Z,73.75
2023-01-28T21:31:22.676Z,73.23
2023-01-28T21:33:51.348Z,72.39
2023-01-28T21:36:19.913Z,72.12
2023-01-28T21:39:01.199Z,72.02
2023-01-28T21:41:29.340Z,72.23
2023-01-28T21:43:57.735Z,72.55
2023-01-28T21:46:33.984Z,72.98
2023-01-28T21:49:05.443Z,72.32
2023-01-28T21:51:40.277Z,72.30
2023-01-28T21:54:12.989Z,72.19
2023-01-28T21:56:43.835Z,72.16
2023-01-28T21:59:30.868Z,72.84
2023-01-28T22:02:01.413Z,72.87
2023-01-28T22:04:34.672Z,72.57
2023-01-28T22:07:04.647Z,73.02
2023-01-28T22:09:33.962Z,72.95
2023-01-28T22:12:09.390Z,73.41
2023-01-28T22:14:38.562Z,73.36
2023-01-28T22:17:09.194Z,73.57
2023-01-28T22:19:37.194Z,73.72
2023-01-28T22:22:05.543Z,74.04
2023-01-28T22:24:33.359Z,73.87
2023-01-28T22:27:01.509Z,74.28
2023-01-28T22:29:29.211Z,74.47
2023-01-28T22:31:57.169Z,74.25
2023-01-28T22:34:25.130Z,74.31
2023-01-28T22:36:53.215Z,74.18
2023-01-28T22:39:20.890Z,73.90
2023-01-28T22:41:48.902Z,73.24
2023-01-28T22:44:16.857Z,72.92
2023-01-28T22:46:44.914Z,73.08
2023-01-28T22:49:14.899Z,73.30
2023-01-28T22:51:43.080Z,73.15
2023-01-28T22:54:14.986Z,73.72
2023-01-28T22:56:43.281Z,73.90
2023-01-28T22:59:12.193Z,74.16
2023-01-28T23:01:40.522Z,73.96
2023-01-28T23:04:08.329Z,74.04
2023-01-28T23:06:37.289Z,73.30
2023-01-28T23:09:05.261Z,73.04
2023-01-28T23:11:33.409Z,72.68
2023-01-28T23:14:21.708Z,73.09
2023-01-28T23:17:08.667Z,73.41
2023-01-28T23:19:55.273Z,72.94
2023-01-28T23:22:46.387Z,73.31
2023-01-28T23:25:14.644Z,73.34
2023-01-28T23:27:43.130Z,73.61
2023-01-28T23:30:11.682Z,73.22
2023-01-28T23:32:43.022Z,72.74
2023-01-28T23:35:12.228Z,72.81
2023-01-28T23:37:40.319Z,72.92
2023-01-28T23:40:08.702Z,72.40
2023-01-28T23:42:36.942Z,71.87
2023-01-28T23:45:05.465Z,71.75
2023-01-28T23:47:33.797Z,70.96
2023-01-28T23:50:01.799Z,70.55
2023-01-28T23:52:29.780Z,70.51
2023-01-28T23:54:57.430Z,70.25
2023-01-28T23:57:25.344Z,70.35
2023-01-28T23:59:53.030Z,69.89
